Time;durP1;ratioP1;P1;durP2;ratioP2;P2;SDS_P1;SDS_P2;PMS_P1;PMS_P2;Temp;Humidity;BMP_temperature;BMP_pressure;BME280_temperature;BME280_humidity;BME280_pressure;Samples;Min_cycle;Max_cycle;Signal;HPM_P1;HPM_P2
2022/01/01 00:00:27;;;;;;;4.43;0.50;;;7.70;99.90;;;;;;4976976;28;20434;-89
2022/01/01 00:02:54;;;;;;;0.40;0.37;;;7.70;99.90;;;;;;4977268;28;20509;-89
2022/01/01 00:05:21;;;;;;;0.30;0.30;;;7.70;99.90;;;;;;4976987;28;20548;-89
2022/01/01 00:07:48;;;;;;;0.50;0.40;;;7.70;99.90;;;;;;4977424;28;20475;-89
2022/01/01 00:10:17;;;;;;;0.30;0.30;;;7.60;99.90;;;;;;4977019;28;20454;-89
2022/01/01 00:12:46;;;;;;;0.40;0.30;;;7.60;99.90;;;;;;4976855;28;20987;-89
2022/01/01 00:15:13;;;;;;;0.50;0.50;;;7.60;99.90;;;;;;4977273;28;20535;-89
2022/01/01 00:17:40;;;;;;;0.33;0.33;;;7.60;99.90;;;;;;4976624;28;20469;-88
2022/01/01 00:20:09;;;;;;;0.50;0.40;;;7.50;99.90;;;;;;4976802;28;20529;-89
2022/01/01 00:22:36;;;;;;;0.40;0.40;;;7.50;99.90;;;;;;4976440;28;20913;-89
2022/01/01 00:25:04;;;;;;;0.40;0.40;;;7.50;99.90;;;;;;4976089;28;20533;-89
2022/01/01 00:27:32;;;;;;;0.30;0.30;;;7.50;99.90;;;;;;4976723;28;20511;-89
2022/01/01 00:29:59;;;;;;;0.30;0.30;;;7.50;99.90;;;;;;4976534;28;20448;-89
2022/01/01 00:32:26;;;;;;;0.30;0.30;;;7.50;99.90;;;;;;4976346;28;20976;-88
2022/01/01 00:34:52;;;;;;;0.40;0.30;;;7.50;99.90;;;;;;4976689;28;20529;-89
2022/01/01 00:37:19;;;;;;;0.30;0.27;;;7.50;99.90;;;;;;4976514;28;20959;-88
2022/01/01 00:39:46;;;;;;;0.30;0.30;;;7.50;99.90;;;;;;4976632;28;20457;-89
2022/01/01 00:42:13;;;;;;;0.43;0.43;;;7.50;99.90;;;;;;4976534;28;20470;-89
2022/01/01 00:44:41;;;;;;;0.30;0.20;;;7.60;99.90;;;;;;4976789;28;20529;-89
2022/01/01 00:47:08;;;;;;;0.30;0.30;;;7.60;99.90;;;;;;4975645;28;21012;-89
2022/01/01 00:49:35;;;;;;;0.60;0.60;;;7.60;99.90;;;;;;4976224;28;20818;-89
2022/01/01 00:52:02;;;;;;;1.20;1.20;;;7.60;99.90;;;;;;4976793;28;20793;-89
2022/01/01 00:54:28;;;;;;;1.27;1.27;;;7.60;99.90;;;;;;4975526;28;20449;-89
2022/01/01 00:56:55;;;;;;;4.43;1.10;;;7.50;99.90;;;;;;4975727;28;20485;-89
2022/01/01 00:59:22;;;;;;;1.10;1.10;;;7.40;99.90;;;;;;4976172;28;20544;-90
2022/01/01 01:01:50;;;;;;;0.80;0.80;;;7.40;99.90;;;;;;4975598;28;20481;-90
2022/01/01 01:04:17;;;;;;;1.90;1.27;;;7.30;99.90;;;;;;4975373;28;20442;-89
2022/01/01 01:06:44;;;;;;;1.53;1.10;;;7.30;99.90;;;;;;4975798;28;20487;-89
2022/01/01 01:09:11;;;;;;;1.50;1.50;;;7.30;99.90;;;;;;4975979;28;20843;-89
2022/01/01 01:11:43;;;;;;;2.07;0.37;;;7.20;99.90;;;;;;4975610;28;20453;-90
2022/01/01 01:14:19;;;;;;;0.83;0.53;;;7.20;99.90;;;;;;4975998;28;20445;-89
2022/01/01 01:16:46;;;;;;;0.30;0.30;;;7.20;99.90;;;;;;4975742;28;20437;-89
2022/01/01 01:19:14;;;;;;;0.30;0.30;;;7.20;99.90;;;;;;4975549;28;20484;-89
2022/01/01 01:21:41;;;;;;;0.33;0.33;;;7.20;99.90;;;;;;4975695;28;20441;-90
2022/01/01 01:24:08;;;;;;;0.30;0.30;;;7.20;99.90;;;;;;4976918;28;20543;-89
2022/01/01 01:26:35;;;;;;;0.30;0.30;;;7.20;99.90;;;;;;4975429;28;20693;-89
2022/01/01 01:29:03;;;;;;;0.30;0.30;;;7.30;99.90;;;;;;4975418;28;20449;-89
2022/01/01 01:31:34;;;;;;;0.37;0.33;;;7.30;99.90;;;;;;4975387;28;20551;-89
2022/01/01 01:34:02;;;;;;;1.83;1.40;;;7.30;99.90;;;;;;4975522;28;20420;-90
2022/01/01 01:36:30;;;;;;;1.17;1.17;;;7.30;99.90;;;;;;4985969;28;20484;-90
2022/01/01 01:38:57;;;;;;;0.40;0.40;;;7.20;99.90;;;;;;4983838;28;20450;-90
2022/01/01 01:41:29;;;;;;;0.50;0.47;;;7.10;99.90;;;;;;4979587;28;20437;-90
2022/01/01 01:43:57;;;;;;;0.70;0.67;;;7.20;99.90;;;;;;4979133;28;20520;-90
2022/01/01 01:46:25;;;;;;;0.53;0.30;;;7.20;99.90;;;;;;4979757;28;20446;-90
2022/01/01 01:48:52;;;;;;;0.50;0.50;;;7.20;99.90;;;;;;4979264;28;20461;-90
2022/01/01 01:51:20;;;;;;;0.50;0.40;;;7.20;99.90;;;;;;4979138;28;20473;-90
2022/01/01 01:53:48;;;;;;;0.57;0.50;;;7.30;99.90;;;;;;4980154;28;20516;-90
2022/01/01 01:56:16;;;;;;;0.33;0.33;;;7.30;99.90;;;;;;4979677;28;20461;-90
2022/01/01 01:58:43;;;;;;;2.10;0.83;;;7.30;99.90;;;;;;4978979;28;20538;-89
2022/01/01 02:03:51;;;;;;;0.97;0.60;;;7.20;99.90;;;;;;4975348;28;20480;-90
2022/01/01 02:06:18;;;;;;;0.83;0.70;;;7.10;99.90;;;;;;4978508;28;20948;-90
2022/01/01 02:08:49;;;;;;;0.73;0.73;;;7.00;99.90;;;;;;4978653;28;20531;-90
2022/01/01 02:11:19;;;;;;;1.17;0.67;;;6.90;99.90;;;;;;4979309;28;20457;-90
2022/01/01 02:14:02;;;;;;;0.97;0.70;;;6.90;99.90;;;;;;4978259;28;20970;-90
2022/01/01 02:16:38;;;;;;;1.00;0.60;;;6.80;99.90;;;;;;4978367;28;20553;-89
2022/01/01 02:19:05;;;;;;;2.80;1.27;;;6.80;99.90;;;;;;4978561;28;20469;-90
2022/01/01 02:21:33;;;;;;;0.93;0.90;;;6.70;99.90;;;;;;4978590;28;20461;-90
2022/01/01 02:24:00;;;;;;;0.50;0.50;;;6.70;99.90;;;;;;4985856;28;20472;-90
2022/01/01 02:26:32;;;;;;;0.63;0.53;;;6.60;99.90;;;;;;4999030;28;20477;-90
2022/01/01 02:28:59;;;;;;;2.83;0.60;;;6.50;99.90;;;;;;4997911;28;20513;-89
2022/01/01 02:31:27;;;;;;;0.50;0.50;;;6.50;99.90;;;;;;4981924;28;20437;-89
2022/01/01 02:33:54;;;;;;;0.83;0.57;;;6.50;99.90;;;;;;4978191;28;20462;-90
2022/01/01 02:36:35;;;;;;;0.70;0.40;;;6.60;99.90;;;;;;4978155;28;20465;-90
2022/01/01 02:39:10;;;;;;;0.40;0.40;;;6.70;99.90;;;;;;4979062;28;20446;-90
2022/01/01 02:41:37;;;;;;;1.57;1.10;;;6.80;99.90;;;;;;4978233;28;20420;-90
2022/01/01 02:44:05;;;;;;;0.30;0.30;;;6.90;99.90;;;;;;4978253;28;20440;-90
2022/01/01 02:46:32;;;;;;;0.30;0.27;;;7.00;99.90;;;;;;4978689;28;20455;-90
2022/01/01 02:48:59;;;;;;;1.17;1.10;;;7.10;99.90;;;;;;4977928;28;20481;-89
2022/01/01 02:51:26;;;;;;;0.40;0.37;;;7.10;99.90;;;;;;4978273;28;20829;-90
2022/01/01 02:53:55;;;;;;;0.30;0.30;;;7.20;99.90;;;;;;4977899;28;20460;-90
2022/01/01 02:56:21;;;;;;;0.50;0.40;;;7.30;99.90;;;;;;4977829;28;20438;-90
2022/01/01 02:58:48;;;;;;;1.07;1.07;;;7.40;99.90;;;;;;4977747;28;20454;-89
2022/01/01 03:01:15;;;;;;;0.40;0.40;;;7.60;99.90;;;;;;4978348;28;20454;-89
2022/01/01 03:03:42;;;;;;;1.03;1.03;;;7.60;99.90;;;;;;4977959;28;20471;-89
2022/01/01 03:06:09;;;;;;;0.47;0.30;;;7.70;99.90;;;;;;4977607;28;20565;-89
2022/01/01 03:08:36;;;;;;;0.37;0.37;;;7.80;99.90;;;;;;4977690;28;20493;-89
2022/01/01 03:11:05;;;;;;;1.30;1.30;;;7.80;99.90;;;;;;4977539;28;20445;-89
2022/01/01 03:13:32;;;;;;;0.80;0.80;;;7.80;99.90;;;;;;4977489;28;20487;-89
2022/01/01 03:15:59;;;;;;;0.37;0.33;;;7.90;99.90;;;;;;4977419;28;20828;-89
2022/01/01 03:18:26;;;;;;;0.60;0.60;;;7.90;99.90;;;;;;4977396;28;20477;-89
2022/01/01 03:20:52;;;;;;;1.03;0.87;;;7.90;99.90;;;;;;4977613;28;20535;-90
2022/01/01 03:23:19;;;;;;;0.60;0.40;;;8.00;99.90;;;;;;4977204;28;20469;-89
2022/01/01 03:25:46;;;;;;;0.87;0.60;;;8.00;99.90;;;;;;4977304;28;20444;-88
2022/01/01 03:28:14;;;;;;;0.70;0.70;;;8.00;99.90;;;;;;4976984;28;20473;-89
2022/01/01 03:30:41;;;;;;;0.50;0.30;;;8.00;99.90;;;;;;4976859;28;20953;-89
2022/01/01 03:33:08;;;;;;;0.40;0.40;;;7.90;99.90;;;;;;4977042;28;20462;-89
2022/01/01 03:35:35;;;;;;;1.13;0.50;;;8.00;99.90;;;;;;4976799;28;20452;-89
2022/01/01 03:38:01;;;;;;;0.33;0.33;;;8.00;99.90;;;;;;4976763;28;20448;-89
2022/01/01 03:40:28;;;;;;;0.30;0.30;;;8.00;99.90;;;;;;4976656;28;20468;-89
2022/01/01 03:42:55;;;;;;;0.30;0.30;;;8.00;99.90;;;;;;4977011;28;20481;-89
2022/01/01 03:45:23;;;;;;;0.40;0.30;;;8.10;99.90;;;;;;4976741;28;20442;-89
2022/01/01 03:47:50;;;;;;;0.40;0.40;;;8.10;99.90;;;;;;4976577;28;20889;-89
2022/01/01 03:50:17;;;;;;;0.30;0.20;;;8.20;99.90;;;;;;4976919;28;20453;-90
2022/01/01 03:52:45;;;;;;;0.30;0.30;;;8.30;99.90;;;;;;4976934;28;20479;-90
2022/01/01 03:55:13;;;;;;;0.30;0.20;;;8.30;99.90;;;;;;4977107;28;20445;-90
2022/01/01 03:57:40;;;;;;;0.70;0.70;;;8.30;99.90;;;;;;4976841;28;20442;-90
2022/01/01 04:00:11;;;;;;;0.40;0.40;;;8.30;99.90;;;;;;4976472;28;20449;-90
2022/01/01 04:02:39;;;;;;;0.30;0.30;;;8.30;99.90;;;;;;4976604;28;20473;-90
2022/01/01 04:05:07;;;;;;;0.40;0.40;;;8.30;99.90;;;;;;4976346;28;20976;-90
2022/01/01 04:07:33;;;;;;;1.37;0.47;;;8.30;99.90;;;;;;4976362;28;20488;-90
2022/01/01 04:10:00;;;;;;;0.40;0.40;;;8.30;99.90;;;;;;4976205;28;20953;-90
2022/01/01 04:12:27;;;;;;;0.40;0.30;;;8.30;99.90;;;;;;4976617;28;20475;-90
2022/01/01 04:14:54;;;;;;;0.30;0.30;;;8.30;99.90;;;;;;4976230;28;20960;-90
2022/01/01 04:17:21;;;;;;;0.50;0.47;;;8.20;99.90;;;;;;4976022;28;20491;-90
2022/01/01 04:19:49;;;;;;;2.67;0.60;;;8.30;99.90;;;;;;4976571;28;20469;-90
2022/01/01 04:22:17;;;;;;;0.50;0.40;;;8.20;99.90;;;;;;4976564;28;20453;-90
2022/01/01 04:24:43;;;;;;;0.30;0.20;;;8.20;99.90;;;;;;4975909;28;20450;-90
2022/01/01 04:27:10;;;;;;;0.73;0.40;;;8.20;99.90;;;;;;4975924;28;20453;-90
2022/01/01 04:29:38;;;;;;;0.40;0.30;;;8.20;99.90;;;;;;4976090;28;20481;-90
2022/01/01 04:32:05;;;;;;;0.40;0.30;;;8.20;99.90;;;;;;4976973;28;20481;-90
2022/01/01 04:34:32;;;;;;;0.60;0.40;;;8.20;99.90;;;;;;4975596;28;20444;-90
2022/01/01 04:37:03;;;;;;;0.50;0.50;;;8.20;99.90;;;;;;4976261;28;20484;-89
2022/01/01 04:39:30;;;;;;;0.47;0.47;;;8.20;99.90;;;;;;4975932;28;20441;-90
2022/01/01 04:41:57;;;;;;;0.63;0.63;;;8.20;99.90;;;;;;4975620;28;20481;-90
2022/01/01 04:44:24;;;;;;;0.30;0.30;;;8.20;99.90;;;;;;4976300;28;20821;-90
2022/01/01 04:46:51;;;;;;;0.40;0.30;;;8.10;99.90;;;;;;4976739;28;20437;-90
2022/01/01 04:49:18;;;;;;;0.93;0.93;;;8.10;99.90;;;;;;4975574;28;20473;-90
2022/01/01 04:51:45;;;;;;;0.43;0.43;;;8.10;99.90;;;;;;4977446;28;20453;-90
2022/01/01 04:54:16;;;;;;;0.30;0.30;;;8.00;99.90;;;;;;4976172;28;20442;-90
2022/01/01 04:56:44;;;;;;;0.30;0.20;;;7.90;99.90;;;;;;4978139;28;20438;-89
2022/01/01 04:59:12;;;;;;;0.60;0.50;;;7.80;99.90;;;;;;4977001;28;20453;-90
2022/01/01 05:01:40;;;;;;;0.40;0.30;;;7.80;99.90;;;;;;4976512;28;20460;-90
2022/01/01 05:04:07;;;;;;;0.30;0.30;;;7.60;99.90;;;;;;4976501;28;20442;-89
2022/01/01 05:06:34;;;;;;;1.03;0.57;;;7.60;99.90;;;;;;4976099;28;20444;-89
2022/01/01 05:09:01;;;;;;;0.30;0.30;;;7.50;99.90;;;;;;4976363;28;20832;-90
2022/01/01 05:11:30;;;;;;;0.30;0.30;;;7.50;99.90;;;;;;4975927;28;20941;-90
2022/01/01 05:13:56;;;;;;;0.30;0.30;;;7.40;99.90;;;;;;4977118;28;20472;-89
2022/01/01 05:16:24;;;;;;;0.30;0.30;;;7.40;99.90;;;;;;4977029;28;20504;-90
2022/01/01 05:18:50;;;;;;;0.60;0.60;;;7.40;99.90;;;;;;4976130;28;20484;-90
2022/01/01 05:21:17;;;;;;;0.40;0.37;;;7.30;99.90;;;;;;4976156;28;20437;-90
2022/01/01 05:23:44;;;;;;;0.87;0.40;;;7.30;99.90;;;;;;4975477;28;20468;-90
2022/01/01 05:26:12;;;;;;;0.33;0.30;;;7.20;99.90;;;;;;4975304;28;20457;-90
2022/01/01 05:28:40;;;;;;;0.30;0.20;;;7.20;99.90;;;;;;4975240;28;20554;-89
2022/01/01 05:31:07;;;;;;;0.40;0.30;;;7.10;99.90;;;;;;4975160;28;20937;-90
2022/01/01 05:33:33;;;;;;;0.33;0.30;;;7.10;99.90;;;;;;4974915;28;20957;-90
2022/01/01 05:36:00;;;;;;;0.30;0.20;;;7.10;99.90;;;;;;4975553;28;20437;-90
2022/01/01 05:38:27;;;;;;;0.30;0.30;;;7.10;99.90;;;;;;4975144;28;20442;-90
2022/01/01 05:40:54;;;;;;;0.57;0.57;;;7.00;99.90;;;;;;4974978;28;20469;-90
2022/01/01 05:43:22;;;;;;;0.30;0.30;;;7.00;99.90;;;;;;4975027;28;20454;-88
2022/01/01 05:45:50;;;;;;;0.30;0.30;;;6.90;99.90;;;;;;4974626;28;20445;-88
2022/01/01 05:48:17;;;;;;;0.30;0.30;;;6.90;99.90;;;;;;4974176;28;20489;-88
2022/01/01 05:50:44;;;;;;;0.53;0.53;;;6.90;99.90;;;;;;4974367;28;20449;-87
2022/01/01 05:53:11;;;;;;;0.30;0.30;;;6.80;99.90;;;;;;4974265;28;20501;-88
2022/01/01 05:55:38;;;;;;;3.60;2.20;;;6.80;99.90;;;;;;4974649;28;20457;-88
2022/01/01 05:58:06;;;;;;;0.30;0.30;;;6.80;99.90;;;;;;4974658;28;20444;-88
2022/01/01 06:00:33;;;;;;;0.30;0.20;;;6.80;99.90;;;;;;4974780;28;20480;-88
2022/01/01 06:03:02;;;;;;;0.30;0.30;;;6.80;99.90;;;;;;4975075;28;20619;-88
2022/01/01 06:05:29;;;;;;;0.77;0.47;;;6.80;99.90;;;;;;4974552;28;20460;-88
2022/01/01 06:07:57;;;;;;;0.30;0.30;;;6.70;99.90;;;;;;4974410;28;20547;-88
2022/01/01 06:10:24;;;;;;;0.30;0.20;;;6.70;99.90;;;;;;4974254;28;20457;-88
2022/01/01 06:12:51;;;;;;;0.30;0.30;;;6.60;99.90;;;;;;4974250;28;20477;-88
2022/01/01 06:15:19;;;;;;;0.30;0.30;;;6.60;99.90;;;;;;4974473;28;20448;-88
2022/01/01 06:17:46;;;;;;;0.30;0.20;;;6.60;99.90;;;;;;4973962;28;20481;-88
2022/01/01 06:20:14;;;;;;;0.30;0.30;;;6.50;99.90;;;;;;4974111;28;20453;-88
2022/01/01 06:22:42;;;;;;;1.53;0.70;;;6.40;99.90;;;;;;4974356;28;20750;-88
2022/01/01 06:25:10;;;;;;;0.50;0.50;;;6.40;99.90;;;;;;4977414;28;20445;-88
2022/01/01 06:27:37;;;;;;;0.30;0.30;;;6.40;99.90;;;;;;4977864;28;20433;-88
2022/01/01 06:30:04;;;;;;;0.33;0.33;;;6.40;99.90;;;;;;4977896;28;20999;-90
2022/01/01 06:32:32;;;;;;;0.40;0.40;;;6.50;99.90;;;;;;4978384;28;20457;-91
2022/01/01 06:34:59;;;;;;;0.50;0.33;;;6.60;99.90;;;;;;4978182;28;21025;-91
2022/01/01 06:37:27;;;;;;;0.30;0.30;;;6.70;99.90;;;;;;4978245;28;20452;-91
2022/01/01 06:39:54;;;;;;;0.50;0.30;;;6.70;99.90;;;;;;4977984;28;20441;-91
2022/01/01 06:42:21;;;;;;;0.40;0.40;;;6.80;99.90;;;;;;4977963;28;20480;-91
2022/01/01 06:44:48;;;;;;;0.60;0.50;;;6.90;99.90;;;;;;4978653;28;20453;-91
2022/01/01 06:47:15;;;;;;;0.40;0.40;;;7.00;99.90;;;;;;4977782;28;20556;-91
2022/01/01 06:49:42;;;;;;;0.40;0.40;;;7.00;99.90;;;;;;4977915;28;20484;-91
2022/01/01 06:52:09;;;;;;;0.73;0.50;;;7.00;99.90;;;;;;4977991;28;20488;-91
2022/01/01 06:54:37;;;;;;;0.37;0.33;;;7.00;99.90;;;;;;4977668;28;20453;-91
2022/01/01 06:57:04;;;;;;;0.40;0.40;;;7.10;99.90;;;;;;4977843;28;20457;-91
2022/01/01 06:59:31;;;;;;;0.40;0.40;;;7.10;99.90;;;;;;4978419;28;20799;-91
2022/01/01 07:01:58;;;;;;;0.30;0.30;;;7.10;99.90;;;;;;4985470;28;20438;-89
2022/01/01 07:04:25;;;;;;;1.03;1.03;;;7.10;99.90;;;;;;4993540;28;20488;-90
2022/01/01 07:06:52;;;;;;;0.30;0.30;;;7.20;99.90;;;;;;4996709;28;20498;-89
2022/01/01 07:09:18;;;;;;;0.30;0.20;;;7.30;99.90;;;;;;4983259;28;20484;-91
2022/01/01 07:11:47;;;;;;;0.80;0.40;;;7.30;99.90;;;;;;4977977;28;20961;-91
2022/01/01 07:14:14;;;;;;;0.30;0.30;;;7.30;99.90;;;;;;4977614;28;20798;-91
2022/01/01 07:16:40;;;;;;;0.33;0.33;;;7.20;99.90;;;;;;4977516;28;20441;-91
2022/01/01 07:19:07;;;;;;;0.67;0.33;;;7.20;99.90;;;;;;4977344;28;21012;-90
2022/01/01 07:21:34;;;;;;;0.40;0.40;;;7.20;99.90;;;;;;4977756;28;20442;-88
2022/01/01 07:24:01;;;;;;;0.30;0.30;;;7.20;99.90;;;;;;4977694;28;20460;-90
2022/01/01 07:26:28;;;;;;;0.30;0.30;;;7.10;99.90;;;;;;4977383;28;20968;-90
2022/01/01 07:28:56;;;;;;;1.37;1.00;;;7.10;99.90;;;;;;4977506;28;20985;-90
2022/01/01 07:31:22;;;;;;;0.30;0.30;;;7.10;99.90;;;;;;4977039;28;20462;-91
2022/01/01 07:33:49;;;;;;;0.30;0.30;;;7.10;99.90;;;;;;4977180;28;20477;-90
2022/01/01 07:36:16;;;;;;;0.30;0.30;;;7.00;99.90;;;;;;4975763;28;20438;-90
2022/01/01 07:38:43;;;;;;;0.40;0.40;;;7.00;99.90;;;;;;4976777;28;20449;-90
2022/01/01 07:41:10;;;;;;;0.30;0.30;;;7.00;99.90;;;;;;4976726;28;20929;-89
2022/01/01 07:43:38;;;;;;;1.07;0.30;;;7.00;99.90;;;;;;4976627;28;20477;-90
2022/01/01 07:46:06;;;;;;;0.70;0.30;;;7.00;99.90;;;;;;4976671;28;20552;-89
2022/01/01 07:48:34;;;;;;;0.40;0.40;;;7.10;99.90;;;;;;4976398;28;20449;-90
2022/01/01 07:51:01;;;;;;;0.40;0.40;;;7.00;99.90;;;;;;4976394;28;20519;-89
2022/01/01 07:53:28;;;;;;;0.30;0.30;;;7.00;99.90;;;;;;4976454;28;20477;-90
2022/01/01 07:55:54;;;;;;;0.30;0.30;;;7.00;99.90;;;;;;4976483;28;20437;-89
2022/01/01 07:58:21;;;;;;;0.30;0.20;;;7.00;99.90;;;;;;4976324;28;20512;-89
2022/01/01 08:00:48;;;;;;;0.30;0.27;;;7.00;99.90;;;;;;4976090;28;20477;-89
2022/01/01 08:03:16;;;;;;;0.37;0.30;;;7.10;99.90;;;;;;4975996;28;20464;-89
2022/01/01 08:05:43;;;;;;;0.60;0.30;;;7.10;99.90;;;;;;4975974;28;20442;-90
2022/01/01 08:08:10;;;;;;;0.33;0.30;;;7.10;99.90;;;;;;4975997;28;20437;-90
2022/01/01 08:10:37;;;;;;;0.30;0.30;;;7.10;99.90;;;;;;4976220;28;20473;-89
2022/01/01 08:13:06;;;;;;;0.47;0.47;;;7.00;99.90;;;;;;4976224;28;20489;-90
2022/01/01 08:15:32;;;;;;;0.30;0.20;;;7.10;99.90;;;;;;4976113;28;20473;-89
2022/01/01 08:17:59;;;;;;;0.40;0.30;;;7.10;99.90;;;;;;4975929;28;21005;-89
2022/01/01 08:20:28;;;;;;;0.30;0.30;;;7.20;99.90;;;;;;4976080;28;20453;-90
2022/01/01 08:22:54;;;;;;;0.30;0.20;;;7.30;99.90;;;;;;4976199;28;20453;-89
2022/01/01 08:25:21;;;;;;;0.60;0.40;;;7.30;99.90;;;;;;4976127;28;20441;-90
2022/01/01 08:27:52;;;;;;;0.40;0.30;;;7.40;99.90;;;;;;4976023;28;20437;-89
2022/01/01 08:30:18;;;;;;;0.30;0.30;;;7.40;99.90;;;;;;4975991;28;20987;-89
2022/01/01 08:32:45;;;;;;;0.60;0.40;;;7.40;99.90;;;;;;4975721;28;20454;-90
2022/01/01 08:35:12;;;;;;;0.30;0.20;;;7.40;99.90;;;;;;4975798;28;20426;-90
2022/01/01 08:37:40;;;;;;;0.40;0.40;;;7.40;99.90;;;;;;4975797;28;20444;-90
2022/01/01 08:40:08;;;;;;;0.30;0.20;;;7.50;99.90;;;;;;4975674;28;20868;-90
2022/01/01 08:42:35;;;;;;;0.30;0.30;;;7.60;99.90;;;;;;4976012;28;20477;-91
2022/01/01 08:45:02;;;;;;;3.90;0.50;;;7.60;99.90;;;;;;4975851;28;20457;-91
2022/01/01 08:47:29;;;;;;;0.40;0.30;;;7.60;99.90;;;;;;4975626;28;20464;-91
2022/01/01 08:49:56;;;;;;;0.30;0.30;;;7.60;99.90;;;;;;4975758;28;20488;-91
2022/01/01 08:52:24;;;;;;;0.70;0.30;;;7.60;99.90;;;;;;4975717;28;20484;-91
2022/01/01 08:54:56;;;;;;;0.30;0.30;;;7.70;99.90;;;;;;4975565;28;20461;-91
2022/01/01 08:57:23;;;;;;;0.30;0.30;;;7.70;99.90;;;;;;4975764;28;20818;-91
2022/01/01 08:59:49;;;;;;;0.80;0.40;;;7.70;99.90;;;;;;4975341;28;20460;-91
2022/01/01 09:02:16;;;;;;;3.30;1.43;;;7.70;99.90;;;;;;4975267;28;20464;-91
2022/01/01 09:04:43;;;;;;;0.40;0.30;;;7.70;99.90;;;;;;4975922;28;20461;-91
2022/01/01 09:07:12;;;;;;;0.30;0.30;;;7.70;99.90;;;;;;4975319;28;20441;-91
2022/01/01 09:09:39;;;;;;;0.30;0.20;;;7.70;99.90;;;;;;4975836;28;20579;-91
2022/01/01 09:12:08;;;;;;;0.30;0.20;;;7.80;99.90;;;;;;4975538;28;20477;-91
2022/01/01 09:14:35;;;;;;;1.70;0.40;;;7.80;99.90;;;;;;4975061;28;20438;-91
2022/01/01 09:17:02;;;;;;;0.50;0.50;;;7.80;99.90;;;;;;4975604;28;20437;-90
2022/01/01 09:19:29;;;;;;;0.30;0.30;;;7.80;99.90;;;;;;4975533;28;20433;-91
2022/01/01 09:21:56;;;;;;;0.83;0.37;;;7.90;99.90;;;;;;4975539;28;20457;-91
2022/01/01 09:24:23;;;;;;;0.40;0.30;;;8.00;99.90;;;;;;4975589;28;20870;-90
2022/01/01 09:26:49;;;;;;;0.40;0.40;;;8.10;99.90;;;;;;4976239;28;20453;-90
2022/01/01 09:29:18;;;;;;;0.30;0.20;;;8.10;99.90;;;;;;4975201;28;20481;-91
2022/01/01 09:31:45;;;;;;;0.30;0.20;;;8.20;99.90;;;;;;4975520;28;20469;-90
2022/01/01 09:34:12;;;;;;;0.30;0.20;;;8.30;99.90;;;;;;4975664;28;20457;-90
2022/01/01 09:36:39;;;;;;;0.40;0.33;;;8.30;99.90;;;;;;4975256;28;20453;-90
2022/01/01 09:39:08;;;;;;;0.33;0.33;;;8.40;99.90;;;;;;4975291;28;20459;-91
2022/01/01 09:41:34;;;;;;;0.57;0.57;;;8.50;99.90;;;;;;4975301;28;20449;-90
2022/01/01 09:44:02;;;;;;;0.40;0.30;;;8.60;99.90;;;;;;4974964;28;20444;-91
2022/01/01 09:46:30;;;;;;;0.87;0.37;;;8.70;99.90;;;;;;4974946;28;20476;-91
2022/01/01 09:48:57;;;;;;;0.40;0.30;;;8.80;99.90;;;;;;4974943;28;20859;-90
2022/01/01 09:51:25;;;;;;;0.30;0.30;;;8.90;99.90;;;;;;4974937;28;20457;-91
2022/01/01 09:53:51;;;;;;;0.40;0.40;;;9.80;99.90;;;;;;4974945;28;20532;-90
2022/01/01 09:56:18;;;;;;;0.40;0.30;;;11.10;99.90;;;;;;4975102;28;20544;-90
2022/01/01 09:58:45;;;;;;;0.83;0.47;;;12.50;99.90;;;;;;4975945;28;20444;-90
2022/01/01 10:01:12;;;;;;;0.40;0.40;;;14.10;99.90;;;;;;4978796;28;20462;-90
2022/01/01 10:03:43;;;;;;;0.40;0.40;;;15.60;99.90;;;;;;4978738;28;20469;-90
2022/01/01 10:06:12;;;;;;;0.80;0.40;;;17.20;99.90;;;;;;4978890;28;20452;-90
2022/01/01 10:08:40;;;;;;;0.70;0.50;;;18.30;99.90;;;;;;4978432;28;20446;-90
2022/01/01 10:11:08;;;;;;;1.17;0.40;;;19.30;99.90;;;;;;4978298;28;20477;-90
2022/01/01 10:13:37;;;;;;;0.50;0.47;;;20.00;99.90;;;;;;4978204;28;20480;-90
2022/01/01 10:16:05;;;;;;;0.40;0.40;;;20.30;98.90;;;;;;4978159;28;20521;-90
2022/01/01 10:18:34;;;;;;;0.60;0.50;;;20.10;97.00;;;;;;4978162;28;20481;-90
2022/01/01 10:21:04;;;;;;;0.70;0.70;;;19.40;97.30;;;;;;4978185;28;20451;-90
2022/01/01 10:23:34;;;;;;;0.60;0.50;;;18.30;97.70;;;;;;4978127;28;20469;-90
2022/01/01 10:28:57;;;;;;;1.10;0.70;;;16.40;99.90;;;;;;4978491;28;20413;-90
2022/01/01 10:31:24;;;;;;;0.50;0.37;;;15.80;99.90;;;;;;4978150;28;20488;-90
2022/01/01 10:33:51;;;;;;;0.73;0.50;;;15.30;99.90;;;;;;4978426;28;20485;-90
2022/01/01 10:36:22;;;;;;;0.57;0.50;;;14.80;99.90;;;;;;4978191;28;20453;-90
2022/01/01 10:38:50;;;;;;;1.83;0.53;;;14.50;99.90;;;;;;4977962;28;20529;-90
2022/01/01 10:41:18;;;;;;;0.50;0.50;;;14.30;99.90;;;;;;4977802;28;20968;-90
2022/01/01 10:43:46;;;;;;;1.23;0.40;;;14.10;99.90;;;;;;4978074;28;20501;-90
2022/01/01 10:46:15;;;;;;;0.40;0.40;;;13.90;99.90;;;;;;4978024;28;20442;-91
2022/01/01 10:48:54;;;;;;;1.57;0.40;;;13.60;99.90;;;;;;4977755;28;20441;-91
2022/01/01 10:51:22;;;;;;;0.80;0.70;;;13.40;99.90;;;;;;4978354;28;20859;-91
2022/01/01 10:54:00;;;;;;;0.70;0.30;;;13.20;99.90;;;;;;4977590;28;20480;-91
2022/01/01 10:56:36;;;;;;;0.30;0.30;;;13.10;99.90;;;;;;4977987;28;20444;-91
2022/01/01 10:59:03;;;;;;;0.43;0.40;;;13.00;99.90;;;;;;4977196;28;20441;-80
2022/01/01 11:01:32;;;;;;;0.40;0.30;;;12.90;99.90;;;;;;4976701;28;20437;-80
2022/01/01 11:03:59;;;;;;;0.53;0.37;;;12.90;99.90;;;;;;4976890;28;20489;-80
2022/01/01 11:06:32;;;;;;;0.40;0.40;;;12.80;99.90;;;;;;4976612;28;20444;-85
2022/01/01 11:09:00;;;;;;;0.40;0.40;;;12.70;99.90;;;;;;4976541;28;20885;-86
2022/01/01 11:11:27;;;;;;;0.40;0.33;;;12.70;99.90;;;;;;4976228;28;21007;-86
2022/01/01 11:13:55;;;;;;;0.30;0.30;;;12.70;99.90;;;;;;4976547;28;20477;-86
2022/01/01 11:16:23;;;;;;;0.50;0.50;;;12.70;99.90;;;;;;4976677;28;20457;-86
2022/01/01 11:18:50;;;;;;;0.30;0.30;;;12.70;99.90;;;;;;4976353;28;20477;-86
2022/01/01 11:21:20;;;;;;;0.40;0.40;;;12.80;99.90;;;;;;4976444;28;20425;-86
2022/01/01 11:23:49;;;;;;;0.40;0.30;;;12.80;99.90;;;;;;4976930;28;20960;-86
2022/01/01 11:26:16;;;;;;;0.50;0.50;;;12.90;99.90;;;;;;4976306;28;20445;-86
2022/01/01 11:28:43;;;;;;;0.40;0.40;;;12.90;99.90;;;;;;4976285;28;20448;-86
2022/01/01 11:31:16;;;;;;;0.30;0.20;;;12.90;99.90;;;;;;4976311;28;20470;-86
2022/01/01 11:33:45;;;;;;;0.30;0.30;;;12.90;99.90;;;;;;4975982;28;20450;-86
2022/01/01 11:36:20;;;;;;;0.40;0.30;;;12.90;99.90;;;;;;4976294;28;20434;-86
2022/01/01 11:38:48;;;;;;;0.90;0.43;;;12.80;99.90;;;;;;4976853;28;20953;-86
2022/01/01 11:41:17;;;;;;;0.30;0.30;;;12.80;99.90;;;;;;4976571;28;20433;-86
2022/01/01 11:43:46;;;;;;;0.30;0.30;;;12.80;99.90;;;;;;4976146;28;20938;-86
2022/01/01 11:46:14;;;;;;;0.40;0.30;;;12.80;99.90;;;;;;4976010;28;20457;-86
2022/01/01 11:48:52;;;;;;;0.30;0.30;;;12.80;99.90;;;;;;4976698;28;20767;-86
2022/01/01 11:51:38;;;;;;;0.40;0.30;;;12.80;99.90;;;;;;4975845;28;20484;-86
2022/01/01 11:54:19;;;;;;;0.30;0.30;;;12.80;99.90;;;;;;4976473;28;20460;-83
2022/01/01 11:57:05;;;;;;;0.40;0.40;;;12.80;99.90;;;;;;4975960;28;20881;-83
2022/01/01 11:59:34;;;;;;;0.40;0.40;;;12.70;99.90;;;;;;4975837;28;20441;-84
2022/01/01 12:02:03;;;;;;;0.30;0.30;;;12.70;99.90;;;;;;4975727;28;20976;-83
2022/01/01 12:04:32;;;;;;;0.87;0.53;;;12.60;99.90;;;;;;4975419;28;20506;-83
2022/01/01 12:07:01;;;;;;;0.60;0.60;;;12.60;99.90;;;;;;4975241;28;20453;-83
2022/01/01 12:09:30;;;;;;;0.40;0.30;;;12.50;99.90;;;;;;4975212;28;20457;-83
2022/01/01 12:11:58;;;;;;;1.23;0.30;;;12.50;99.90;;;;;;4974991;28;20495;-83
2022/01/01 12:14:28;;;;;;;0.30;0.30;;;12.50;99.90;;;;;;4975311;28;20512;-83
2022/01/01 12:16:56;;;;;;;1.23;0.57;;;12.50;99.90;;;;;;4975282;28;20453;-83
2022/01/01 12:19:25;;;;;;;0.67;0.40;;;12.50;99.90;;;;;;4975504;28;20465;-83
2022/01/01 12:22:07;;;;;;;0.97;0.40;;;12.50;99.90;;;;;;4974585;28;20454;-83
2022/01/01 12:24:39;;;;;;;0.40;0.30;;;12.40;99.90;;;;;;4975223;28;20847;-83
2022/01/01 12:27:12;;;;;;;0.40;0.30;;;12.50;99.90;;;;;;4975166;28;20445;-83
2022/01/01 12:29:39;;;;;;;0.40;0.40;;;12.50;99.90;;;;;;4975376;28;20414;-83
2022/01/01 12:32:08;;;;;;;0.30;0.30;;;12.50;99.90;;;;;;4974994;28;20836;-83
2022/01/01 12:34:36;;;;;;;0.50;0.30;;;12.50;99.90;;;;;;4974943;28;20841;-83
2022/01/01 12:37:06;;;;;;;1.27;0.30;;;12.50;99.90;;;;;;4975051;28;20508;-85
2022/01/01 12:39:59;;;;;;;0.40;0.37;;;12.50;99.90;;;;;;4975069;28;20882;-84
2022/01/01 12:42:30;;;;;;;1.57;0.40;;;12.50;99.90;;;;;;4974925;28;20465;-85
2022/01/01 12:44:59;;;;;;;0.50;0.40;;;12.50;99.90;;;;;;4974958;28;20433;-85
2022/01/01 12:47:28;;;;;;;0.50;0.40;;;12.50;99.90;;;;;;4975081;28;20445;-84
2022/01/01 12:49:58;;;;;;;1.37;0.47;;;12.50;99.90;;;;;;4974803;28;20441;-85
2022/01/01 12:52:25;;;;;;;0.30;0.30;;;12.50;99.90;;;;;;4974931;28;20473;-84
2022/01/01 12:54:52;;;;;;;1.13;0.30;;;12.50;99.90;;;;;;4974748;28;20434;-84
2022/01/01 12:57:20;;;;;;;0.60;0.30;;;12.50;99.90;;;;;;4974792;28;20468;-84
2022/01/01 12:59:48;;;;;;;0.30;0.30;;;12.40;99.90;;;;;;4974522;28;20437;-84
2022/01/01 13:02:15;;;;;;;0.30;0.30;;;12.40;99.90;;;;;;4974691;28;20465;-85
2022/01/01 13:04:42;;;;;;;0.30;0.20;;;12.30;99.90;;;;;;4974747;28;20964;-85